createdAt,value
2018-06-01T00:01:31.231Z,65.79
2018-06-01T00:04:04.415Z,63.85
2018-06-01T00:06:33.178Z,65.17
2018-06-01T00:09:10.736Z,65.74
2018-06-01T00:11:40.942Z,66.13
2018-06-01T00:14:10.306Z,65.77
2018-06-01T00:16:39.531Z,65.65
2018-06-01T00:19:08.428Z,63.78
2018-06-01T00:21:37.056Z,66.31
2018-06-01T00:24:07.217Z,67.01
2018-06-01T00:26:35.874Z,66.90
2018-06-01T00:29:04.776Z,66.39
2018-06-01T00:31:33.890Z,66.03
2018-06-01T00:34:02.590Z,66.18
2018-06-01T00:36:31.243Z,64.82
2018-06-01T00:38:59.917Z,66.18
2018-06-01T00:41:28.833Z,65.25
2018-06-01T00:43:57.499Z,66.66
2018-06-01T00:46:26.437Z,66.51
2018-06-01T00:48:55.138Z,66.51
2018-06-01T00:51:24.096Z,67.48
2018-06-01T00:53:53.347Z,68.05
2018-06-01T00:56:22.363Z,67.84
2018-06-01T00:58:51.197Z,68.13
2018-06-01T01:01:20.074Z,64.87
2018-06-01T01:03:49.012Z,66.43
2018-06-01T01:06:18.689Z,67.12
2018-06-01T01:08:47.461Z,68.14
2018-06-01T01:11:18.070Z,68.26
2018-06-01T01:13:50.130Z,69.42
2018-06-01T01:16:18.763Z,69.53
2018-06-01T01:18:47.935Z,69.77
2018-06-01T01:21:16.625Z,69.85
2018-06-01T01:23:45.300Z,69.66
2018-06-01T01:26:13.961Z,70.00
2018-06-01T01:28:42.638Z,67.76
2018-06-01T01:34:00.088Z,70.15
2018-06-01T01:36:29.698Z,69.92
2018-06-01T01:38:58.533Z,70.81
2018-06-01T01:41:30.322Z,70.83
2018-06-01T01:44:01.579Z,70.76
2018-06-01T01:46:30.603Z,70.28
2018-06-01T01:48:59.674Z,69.68
2018-06-01T01:51:28.838Z,70.36
2018-06-01T01:54:04.325Z,70.20
2018-06-01T01:56:35.102Z,70.17
2018-06-01T01:59:03.818Z,70.55
2018-06-01T02:01:33.384Z,70.29
2018-06-01T02:04:02.264Z,70.11
2018-06-01T02:06:31.062Z,69.85
2018-06-01T02:08:59.879Z,69.83
2018-06-01T02:11:28.915Z,69.82
2018-06-01T02:13:57.591Z,70.03
2018-06-01T02:16:26.604Z,69.90
2018-06-01T02:18:55.289Z,70.16
2018-06-01T02:21:24.444Z,70.69
2018-06-01T02:23:53.148Z,70.71
2018-06-01T02:26:24.759Z,70.65
2018-06-01T02:29:01.234Z,70.85
2018-06-01T02:31:45.986Z,71.16
2018-06-01T02:34:14.656Z,70.97
2018-06-01T02:36:44.042Z,70.89
2018-06-01T02:39:12.711Z,68.93
2018-06-01T02:41:43.515Z,70.45
2018-06-01T02:44:12.574Z,71.25
2018-06-01T02:46:49.130Z,70.75
2018-06-01T02:49:17.882Z,70.75
2018-06-01T02:51:48.653Z,70.51
2018-06-01T02:54:20.633Z,71.15
2018-06-01T02:56:49.660Z,71.85
2018-06-01T03:02:06.438Z,71.17
2018-06-01T03:04:35.142Z,71.46
2018-06-01T03:07:04.761Z,71.54
2018-06-01T03:09:40.712Z,69.44
2018-06-01T03:12:10.069Z,68.77
2018-06-01T03:14:42.255Z,70.36
2018-06-01T03:17:11.518Z,71.19
2018-06-01T03:19:43.933Z,71.04
2018-06-01T03:22:18.517Z,71.10
2018-06-01T03:24:49.043Z,71.90
2018-06-01T03:27:18.665Z,71.65
2018-06-01T03:29:47.794Z,72.24
2018-06-01T03:32:18.608Z,72.33
2018-06-01T03:34:50.002Z,72.14
2018-06-01T03:37:19.170Z,69.68
2018-06-01T03:39:49.677Z,68.67
2018-06-01T03:42:19.815Z,70.56
2018-06-01T03:44:48.859Z,71.29
2018-06-01T03:47:24.774Z,71.77
2018-06-01T03:49:58.513Z,71.67
2018-06-01T03:58:05.011Z,71.84
2018-06-01T04:00:47.100Z,71.65
2018-06-01T04:09:05.288Z,71.75
2018-06-01T04:11:37.018Z,68.92
2018-06-01T04:14:09.188Z,68.03
2018-06-01T04:16:38.542Z,70.77
2018-06-01T04:19:25.302Z,71.09
2018-06-01T04:27:32.899Z,71.48
2018-06-01T04:30:12.579Z,71.18
2018-06-01T04:32:43.524Z,70.96
2018-06-01T04:35:14.977Z,70.59
2018-06-01T04:37:44.224Z,70.37
2018-06-01T04:40:13.386Z,70.53
2018-06-01T04:42:48.533Z,70.88
2018-06-01T04:45:18.297Z,68.47
2018-06-01T04:50:35.659Z,70.09
2018-06-01T04:53:12.950Z,66.86
2018-06-01T04:58:42.577Z,69.52
2018-06-01T05:01:19.576Z,69.93
2018-06-01T05:03:51.692Z,69.80
2018-06-01T05:06:28.232Z,69.60
2018-06-01T05:09:01.994Z,69.40
2018-06-01T05:14:24.981Z,69.67
2018-06-01T05:16:54.564Z,69.41
2018-06-01T05:22:20.362Z,68.43
2018-06-01T05:24:53.722Z,68.73
2018-06-01T05:27:24.997Z,66.49
2018-06-01T05:29:55.101Z,65.79
2018-06-01T05:35:15.887Z,65.13
2018-06-01T05:40:54.585Z,68.51
2018-06-01T05:51:50.245Z,68.38
2018-06-01T05:54:19.048Z,68.46
2018-06-01T05:56:48.849Z,68.76
2018-06-01T05:59:22.114Z,69.75
2018-06-01T06:01:50.752Z,70.83
2018-06-01T06:58:56.050Z,83.84
2018-06-01T07:01:30.579Z,82.16
2018-06-01T07:04:02.741Z,81.16
2018-06-01T07:06:34.154Z,82.24
2018-06-01T07:09:04.573Z,82.78
2018-06-01T07:11:35.312Z,83.14
2018-06-01T07:14:04.436Z,83.30
2018-06-01T07:16:35.109Z,81.64
2018-06-01T07:19:04.090Z,82.40
2018-06-01T07:24:20.944Z,83.18
2018-06-01T07:26:59.037Z,83.22
2018-06-01T07:29:29.330Z,81.40
2018-06-01T07:31:58.797Z,82.29
2018-06-01T07:34:29.912Z,82.35
2018-06-01T07:36:59.105Z,82.77
2018-06-01T07:39:28.690Z,82.73
2018-06-01T07:41:57.369Z,82.67
2018-06-01T07:44:26.096Z,82.57
2018-06-01T07:46:56.463Z,82.50
2018-06-01T07:49:25.535Z,82.41
2018-06-01T07:51:54.373Z,82.57
2018-06-01T07:54:28.125Z,82.50
2018-06-01T07:56:57.731Z,82.30
2018-06-01T07:59:28.444Z,82.17
2018-06-01T08:02:12.545Z,79.97
2018-06-01T08:04:44.560Z,80.88
2018-06-01T08:07:13.787Z,81.27
2018-06-01T08:09:42.878Z,81.47
2018-06-01T08:12:11.970Z,81.28
2018-06-01T08:14:41.054Z,81.27
2018-06-01T08:17:09.831Z,78.60
2018-06-01T08:19:38.815Z,79.40
2018-06-01T08:22:11.024Z,79.13
2018-06-01T08:24:41.766Z,79.11
2018-06-01T08:29:58.531Z,79.64
2018-06-01T08:32:28.189Z,79.51
2018-06-01T08:34:57.977Z,78.97
2018-06-01T08:37:29.233Z,78.78
2018-06-01T08:39:59.538Z,79.24
2018-06-01T08:42:28.460Z,76.50
2018-06-01T08:44:57.262Z,77.33
2018-06-01T08:47:26.507Z,73.86
2018-06-01T08:52:58.485Z,77.41
2018-06-01T08:55:27.490Z,77.46
2018-06-01T08:57:56.196Z,77.54
2018-06-01T09:00:31.225Z,77.56
2018-06-01T09:03:02.884Z,77.50
2018-06-01T09:08:21.177Z,75.26
2018-06-01T09:10:53.422Z,75.08
2018-06-01T09:13:22.155Z,74.76
2018-06-01T09:15:51.334Z,74.38
2018-06-01T09:18:22.234Z,74.65
2018-06-01T09:20:51.008Z,74.83
2018-06-01T09:23:19.718Z,74.34
2018-06-01T09:25:48.388Z,73.63
2018-06-01T09:28:17.299Z,73.17
2018-06-01T09:30:45.926Z,73.45
2018-06-01T09:33:14.560Z,73.12
2018-06-01T09:35:43.221Z,73.16
2018-06-01T09:38:29.531Z,71.90
2018-06-01T09:40:58.620Z,72.03
2018-06-01T09:43:27.244Z,71.71
2018-06-01T09:45:55.909Z,71.47
2018-06-01T09:48:24.555Z,70.64
2018-06-01T09:50:54.413Z,70.52
2018-06-01T09:53:23.558Z,70.38
2018-06-01T09:55:54.716Z,70.52
2018-06-01T09:58:24.889Z,69.29
2018-06-01T10:01:11.889Z,69.25
2018-06-01T10:03:40.547Z,68.80
2018-06-01T10:06:09.873Z,68.37
2018-06-01T10:08:38.790Z,67.80
2018-06-01T10:11:12.331Z,68.36
2018-06-01T10:13:42.605Z,61.47
2018-06-01T10:16:11.269Z,63.98
2018-06-01T10:18:39.882Z,58.02
2018-06-01T10:21:08.482Z,61.11
2018-06-01T10:23:41.019Z,61.29
2018-06-01T10:26:09.636Z,61.03
2018-06-01T10:28:38.877Z,61.04
2018-06-01T10:31:07.730Z,58.65
2018-06-01T10:33:36.601Z,59.42
2018-06-01T10:36:05.217Z,59.62
2018-06-01T10:38:40.400Z,59.04
2018-06-01T10:41:08.992Z,58.32
2018-06-01T10:43:37.666Z,57.97
2018-06-01T10:46:06.301Z,56.86
2018-06-01T10:48:34.928Z,57.03
2018-06-01T10:51:03.559Z,54.59
2018-06-01T10:53:32.573Z,53.74
2018-06-01T10:56:02.091Z,48.20
2018-06-01T10:58:32.783Z,53.27
2018-06-01T11:01:02.334Z,53.84
2018-06-01T11:03:32.968Z,54.48
2018-06-01T11:06:01.988Z,53.53
2018-06-01T11:08:32.621Z,53.10
2018-06-01T11:11:01.228Z,51.66
2018-06-01T11:13:29.882Z,51.23
2018-06-01T11:18:47.837Z,52.37
2018-06-01T11:21:18.544Z,52.34
2018-06-01T11:23:49.881Z,52.67
2018-06-01T11:26:20.491Z,53.08
2018-06-01T11:28:54.381Z,52.75
2018-06-01T11:31:25.306Z,51.70
2018-06-01T11:33:54.943Z,51.17
2018-06-01T11:36:23.540Z,51.29
2018-06-01T11:38:54.352Z,50.58
2018-06-01T11:41:23.064Z,50.35
2018-06-01T11:43:52.490Z,43.70
2018-06-01T11:46:21.638Z,47.26
2018-06-01T11:48:50.615Z,49.53
2018-06-01T11:51:19.274Z,45.96
2018-06-01T11:53:52.508Z,48.49
2018-06-01T11:56:23.289Z,47.61
2018-06-01T11:58:51.974Z,47.58
2018-06-01T12:01:20.626Z,49.12
2018-06-01T12:03:49.336Z,49.36
2018-06-01T12:06:18.967Z,45.99
2018-06-01T12:08:49.264Z,49.08
2018-06-01T12:11:18.313Z,49.81
2018-06-01T12:13:49.184Z,49.62
2018-06-01T12:16:21.958Z,51.32
2018-06-01T12:18:52.735Z,51.56
2018-06-01T12:21:25.939Z,47.80
2018-06-01T12:23:57.222Z,50.70
2018-06-01T12:26:28.455Z,51.73
2018-06-01T12:28:57.384Z,48.40
2018-06-01T12:31:26.681Z,51.14
2018-06-01T12:33:55.777Z,51.84
2018-06-01T12:36:24.939Z,51.80
2018-06-01T12:38:53.551Z,52.01
2018-06-01T12:41:22.617Z,52.90
2018-06-01T12:43:51.262Z,53.50
2018-06-01T12:46:19.917Z,53.48
2018-06-01T12:48:50.663Z,54.49
2018-06-01T12:51:19.615Z,53.52
2018-06-01T12:53:48.570Z,53.07
2018-06-01T12:56:19.406Z,49.12
2018-06-01T12:58:50.020Z,51.26
2018-06-01T13:01:19.377Z,51.72
2018-06-01T13:03:59.130Z,51.78
2018-06-01T13:06:27.992Z,51.52
2018-06-01T13:08:59.387Z,50.53
2018-06-01T13:11:34.590Z,45.62
2018-06-01T13:14:13.249Z,48.12
2018-06-01T13:17:01.746Z,47.03
2018-06-01T13:25:18.565Z,43.00
2018-06-01T13:27:51.493Z,45.60
2018-06-01T13:30:23.330Z,46.75
2018-06-01T13:32:55.224Z,46.00
2018-06-01T13:35:24.437Z,45.17
2018-06-01T13:37:55.268Z,45.36
2018-06-01T13:40:32.867Z,44.67
2018-06-01T13:43:02.264Z,44.86
2018-06-01T13:45:38.390Z,44.67
2018-06-01T13:51:00.576Z,45.98
2018-06-01T13:56:20.067Z,43.24
2018-06-01T13:58:50.194Z,43.58
2018-06-01T14:01:34.848Z,44.01
2018-06-01T14:04:04.068Z,44.39
2018-06-01T14:06:39.638Z,44.46
2018-06-01T14:12:00.140Z,44.61
2018-06-01T14:14:38.524Z,43.88
2018-06-01T14:17:14.789Z,40.25
2018-06-01T14:19:52.996Z,43.85
2018-06-01T14:22:28.484Z,45.40
2018-06-01T14:27:48.279Z,46.31
2018-06-01T14:30:17.376Z,47.81
2018-06-01T14:32:46.251Z,49.17
2018-06-01T14:35:16.469Z,49.91
2018-06-01T14:37:50.570Z,49.74
2018-06-01T14:40:22.809Z,49.09
2018-06-01T14:42:53.084Z,49.84
2018-06-01T14:45:29.928Z,50.55
2018-06-01T14:48:00.814Z,51.95
2018-06-01T14:50:30.886Z,53.01
2018-06-01T14:53:02.159Z,52.80
2018-06-01T14:55:32.544Z,49.51
2018-06-01T14:58:05.368Z,49.31
2018-06-01T15:00:34.338Z,51.89
2018-06-01T15:05:53.283Z,54.59
2018-06-01T15:08:24.570Z,56.24
2018-06-01T15:10:57.594Z,58.40
2018-06-01T15:13:28.196Z,59.97
2018-06-01T15:15:57.770Z,62.28
2018-06-01T15:18:42.364Z,62.78
2018-06-01T15:21:16.158Z,63.76
2018-06-01T15:23:48.281Z,64.11
2018-06-01T15:26:17.180Z,65.19
2018-06-01T15:28:47.523Z,66.37
2018-06-01T15:31:16.423Z,67.00
2018-06-01T15:33:47.467Z,67.47
2018-06-01T15:39:17.923Z,67.82
2018-06-01T15:41:46.831Z,68.34
2018-06-01T15:44:16.996Z,69.01
2018-06-01T15:46:46.934Z,67.58
2018-06-01T15:49:18.144Z,69.59
2018-06-01T15:51:49.896Z,68.26
2018-06-01T15:54:23.553Z,70.30
2018-06-01T15:56:52.445Z,70.46
2018-06-01T15:59:31.440Z,70.62
2018-06-01T16:02:04.863Z,71.59
2018-06-01T16:04:35.919Z,71.90
2018-06-01T16:07:04.858Z,71.79
2018-06-01T16:09:36.252Z,72.12
2018-06-01T16:14:54.177Z,72.06
2018-06-01T16:17:24.514Z,70.45
2018-06-01T16:19:53.363Z,69.93
2018-06-01T16:22:21.985Z,71.29
2018-06-01T16:24:56.139Z,71.89
2018-06-01T16:27:24.778Z,72.31
2018-06-01T16:29:56.970Z,70.93
2018-06-01T16:32:25.594Z,72.13
2018-06-01T16:34:54.253Z,72.56
2018-06-01T16:37:31.016Z,73.18
2018-06-01T16:40:06.935Z,71.33
2018-06-01T16:42:39.623Z,72.57
2018-06-01T16:45:15.410Z,73.14
2018-06-01T16:47:44.809Z,73.05
2018-06-01T16:50:13.607Z,73.63
2018-06-01T16:52:44.504Z,73.67
2018-06-01T16:55:13.673Z,74.02
2018-06-01T16:57:52.573Z,74.26
2018-06-01T17:00:23.275Z,74.53
2018-06-01T17:02:52.795Z,72.13
2018-06-01T17:05:24.044Z,73.73
2018-06-01T17:07:52.658Z,74.24
2018-06-01T17:10:24.076Z,74.28
2018-06-01T17:12:52.860Z,71.32
2018-06-01T17:15:22.066Z,73.22
2018-06-01T17:17:50.673Z,73.69
2018-06-01T17:20:21.810Z,73.81
2018-06-01T17:22:55.998Z,70.74
2018-06-01T17:25:26.620Z,70.01
2018-06-01T17:27:55.779Z,72.46
2018-06-01T17:30:24.493Z,73.37
2018-06-01T17:32:53.097Z,73.76
2018-06-01T17:35:25.343Z,73.76
2018-06-01T17:37:54.027Z,73.74
2018-06-01T17:40:24.681Z,73.77
2018-06-01T17:42:54.504Z,73.97
2018-06-01T17:45:25.162Z,73.72
2018-06-01T17:47:53.837Z,73.86
2018-06-01T17:50:25.478Z,70.71
2018-06-01T17:52:55.880Z,72.84
2018-06-01T17:55:24.732Z,73.33
2018-06-01T17:57:53.430Z,73.69
2018-06-01T18:00:22.105Z,73.65
2018-06-01T18:02:51.254Z,73.98
2018-06-01T18:05:22.289Z,74.14
2018-06-01T18:07:52.178Z,74.21
2018-06-01T18:10:21.039Z,74.42
2018-06-01T18:12:49.661Z,74.78
2018-06-01T18:15:18.258Z,72.43
2018-06-01T18:17:49.251Z,74.34
2018-06-01T18:20:18.369Z,75.09
2018-06-01T18:22:47.821Z,75.29
2018-06-01T18:25:18.370Z,75.41
2018-06-01T18:27:48.086Z,75.54
2018-06-01T18:30:19.892Z,73.00
2018-06-01T18:32:53.817Z,74.87
2018-06-01T18:35:22.832Z,75.91
2018-06-01T18:37:52.785Z,72.92
2018-06-01T18:40:24.025Z,74.51
2018-06-01T18:42:53.966Z,75.12
2018-06-01T18:45:22.812Z,75.33
2018-06-01T18:47:51.936Z,75.57
2018-06-01T18:50:20.878Z,75.65
2018-06-01T18:52:50.629Z,75.64
2018-06-01T18:55:21.695Z,75.72
2018-06-01T18:57:54.983Z,75.87
2018-06-01T19:00:24.023Z,75.87
2018-06-01T19:02:53.133Z,76.00
2018-06-01T19:05:26.010Z,76.05
2018-06-01T19:07:55.110Z,76.01
2018-06-01T19:10:24.229Z,74.04
2018-06-01T19:12:53.232Z,75.69
2018-06-01T19:15:26.052Z,76.04
2018-06-01T19:18:05.382Z,73.75
2018-06-01T19:23:28.071Z,76.26
2018-06-01T19:25:58.425Z,76.62
2018-06-01T19:28:29.332Z,76.73
2018-06-01T19:33:49.157Z,76.99
2018-06-01T19:36:21.337Z,77.17
2018-06-01T19:38:50.185Z,77.51
2018-06-01T19:41:19.106Z,77.61
2018-06-01T19:43:49.643Z,77.81
2018-06-01T19:46:19.867Z,75.63
2018-06-01T19:48:48.886Z,74.68
2018-06-01T19:51:22.182Z,74.17
2018-06-01T19:53:52.285Z,73.77
2018-06-01T19:56:21.618Z,75.83
2018-06-01T19:58:50.500Z,76.87
2018-06-01T20:01:22.941Z,77.07
2018-06-01T20:03:53.010Z,74.90
2018-06-01T20:06:21.868Z,76.29
2018-06-01T20:08:51.330Z,76.80
2018-06-01T20:11:24.431Z,77.41
2018-06-01T20:13:55.288Z,77.66
2018-06-01T20:16:26.068Z,77.89
2018-06-01T20:18:55.820Z,77.96
2018-06-01T20:21:26.040Z,78.09
2018-06-01T20:23:59.854Z,76.01
2018-06-01T20:26:29.059Z,75.13
2018-06-01T20:29:00.604Z,74.61
2018-06-01T20:31:29.445Z,76.60
2018-06-01T20:33:58.083Z,77.43
2018-06-01T20:36:27.248Z,78.13
2018-06-01T20:38:57.148Z,78.25
2018-06-01T20:41:30.611Z,78.34
2018-06-01T20:44:00.761Z,78.23
2018-06-01T20:46:29.543Z,78.41
2018-06-01T20:48:58.586Z,78.36
2018-06-01T20:51:30.308Z,78.72
2018-06-01T20:54:01.292Z,76.48
2018-06-01T20:56:31.636Z,77.37
2018-06-01T20:59:00.771Z,75.72
2018-06-01T21:01:29.713Z,77.23
2018-06-01T21:03:58.375Z,77.78
2018-06-01T21:06:30.439Z,78.09
2018-06-01T21:09:00.607Z,78.66
2018-06-01T21:11:29.779Z,78.74
2018-06-01T21:13:59.362Z,78.82
2018-06-01T21:16:28.171Z,78.98
2018-06-01T21:18:56.941Z,79.52
2018-06-01T21:21:25.808Z,79.83
2018-06-01T21:23:54.423Z,79.94
2018-06-01T21:26:24.058Z,77.54
2018-06-01T21:28:52.987Z,76.64
2018-06-01T21:31:21.635Z,78.30
2018-06-01T21:33:50.884Z,79.11
2018-06-01T21:36:21.149Z,79.06
2018-06-01T21:38:50.044Z,79.19
2018-06-01T21:41:26.268Z,77.12
2018-06-01T21:44:05.532Z,78.34
2018-06-01T21:46:41.708Z,78.98
2018-06-01T21:49:10.504Z,76.80
2018-06-01T21:51:49.079Z,78.14
2018-06-01T21:54:18.729Z,78.80
2018-06-01T21:56:48.780Z,78.95
2018-06-01T21:59:17.729Z,78.95
2018-06-01T22:01:46.687Z,79.02
2018-06-01T22:04:17.946Z,79.14
2018-06-01T22:06:46.925Z,79.37
2018-06-01T22:12:11.464Z,79.65
2018-06-01T22:14:40.951Z,77.43
2018-06-01T22:17:11.294Z,78.50
2018-06-01T22:19:44.867Z,79.26
2018-06-01T22:22:20.703Z,79.43
2018-06-01T22:24:53.420Z,79.67
2018-06-01T22:27:23.692Z,79.85
2018-06-01T22:29:57.668Z,79.82
2018-06-01T22:32:39.863Z,79.89
2018-06-01T22:35:10.049Z,80.11
2018-06-01T22:37:42.411Z,79.80
2018-06-01T22:43:04.362Z,79.98
2018-06-01T22:45:40.779Z,79.72
2018-06-01T22:48:16.206Z,79.67
2018-06-01T22:50:46.549Z,79.88
2018-06-01T22:53:17.517Z,80.19
2018-06-01T22:55:46.541Z,80.48
2018-06-01T22:58:15.798Z,80.44
2018-06-01T23:00:48.880Z,80.42
2018-06-01T23:03:19.518Z,80.59
2018-06-01T23:05:49.898Z,78.46
2018-06-01T23:08:22.967Z,77.47
2018-06-01T23:10:55.683Z,78.79
2018-06-01T23:13:26.809Z,79.66
2018-06-01T23:16:01.392Z,79.99
2018-06-01T23:18:37.995Z,79.83
2018-06-01T23:21:21.128Z,80.01
2018-06-01T23:24:06.823Z,80.37
2018-06-01T23:26:38.952Z,80.12
2018-06-01T23:29:23.029Z,78.19
2018-06-01T23:34:46.745Z,78.93
2018-06-01T23:37:18.583Z,79.45
2018-06-01T23:39:48.823Z,79.72
2018-06-01T23:42:20.475Z,79.76
2018-06-01T23:44:53.753Z,79.97
2018-06-01T23:47:24.064Z,80.33
2018-06-01T23:49:55.703Z,80.56
2018-06-01T23:52:27.946Z,80.67
2018-06-01T23:54:59.468Z,80.49
2018-06-01T23:57:30.055Z,78.54
